sensor_id;sensor_type;location;lat;lon;timestamp;P1;durP1;ratioP1;P2;durP2;ratioP2
57858;SDS011;49153;45.568;11.894;2022-08-30T00:00:33;7.63;;;6.30;;
57858;SDS011;49153;45.568;11.894;2022-08-30T00:03:18;7.93;;;6.45;;
57858;SDS011;49153;45.568;11.894;2022-08-30T00:05:44;9.05;;;7.10;;
57858;SDS011;49153;45.568;11.894;2022-08-30T00:08:10;8.18;;;7.00;;
57858;SDS011;49153;45.568;11.894;2022-08-30T00:10:37;8.80;;;6.72;;
57858;SDS011;49153;45.568;11.894;2022-08-30T00:13:04;7.93;;;6.45;;
57858;SDS011;49153;45.568;11.894;2022-08-30T00:15:30;8.13;;;6.32;;
57858;SDS011;49153;45.568;11.894;2022-08-30T00:17:56;8.77;;;7.18;;
57858;SDS011;49153;45.568;11.894;2022-08-30T00:20:23;8.48;;;6.50;;
57858;SDS011;49153;45.568;11.894;2022-08-30T00:22:51;9.85;;;6.85;;
57858;SDS011;49153;45.568;11.894;2022-08-30T00:25:17;13.48;;;9.00;;
57858;SDS011;49153;45.568;11.894;2022-08-30T00:27:43;13.52;;;9.25;;
57858;SDS011;49153;45.568;11.894;2022-08-30T00:30:09;10.82;;;8.50;;
57858;SDS011;49153;45.568;11.894;2022-08-30T00:32:36;10.60;;;8.38;;
57858;SDS011;49153;45.568;11.894;2022-08-30T00:35:04;11.13;;;8.27;;
57858;SDS011;49153;45.568;11.894;2022-08-30T00:37:31;9.20;;;8.23;;
57858;SDS011;49153;45.568;11.894;2022-08-30T00:39:57;10.45;;;8.55;;
57858;SDS011;49153;45.568;11.894;2022-08-30T00:42:23;9.25;;;8.20;;
57858;SDS011;49153;45.568;11.894;2022-08-30T00:44:49;9.43;;;7.93;;
57858;SDS011;49153;45.568;11.894;2022-08-30T00:47:16;10.63;;;7.93;;
57858;SDS011;49153;45.568;11.894;2022-08-30T00:49:44;10.60;;;7.80;;
57858;SDS011;49153;45.568;11.894;2022-08-30T00:52:12;11.40;;;8.00;;
57858;SDS011;49153;45.568;11.894;2022-08-30T00:54:41;9.10;;;7.60;;
57858;SDS011;49153;45.568;11.894;2022-08-30T00:57:15;9.68;;;7.60;;
57858;SDS011;49153;45.568;11.894;2022-08-30T00:59:42;9.88;;;7.68;;
57858;SDS011;49153;45.568;11.894;2022-08-30T01:02:11;8.45;;;7.38;;
57858;SDS011;49153;45.568;11.894;2022-08-30T01:04:37;8.52;;;7.07;;
57858;SDS011;49153;45.568;11.894;2022-08-30T01:07:06;10.10;;;7.60;;
57858;SDS011;49153;45.568;11.894;2022-08-30T01:09:32;10.50;;;6.85;;
57858;SDS011;49153;45.568;11.894;2022-08-30T01:11:59;8.95;;;7.38;;
57858;SDS011;49153;45.568;11.894;2022-08-30T01:14:25;12.05;;;9.10;;
57858;SDS011;49153;45.568;11.894;2022-08-30T01:16:52;8.10;;;7.10;;
57858;SDS011;49153;45.568;11.894;2022-08-30T01:19:23;10.65;;;7.15;;
57858;SDS011;49153;45.568;11.894;2022-08-30T01:25:00;10.60;;;8.27;;
57858;SDS011;49153;45.568;11.894;2022-08-30T01:27:27;10.55;;;8.60;;
57858;SDS011;49153;45.568;11.894;2022-08-30T01:29:55;10.23;;;8.38;;
57858;SDS011;49153;45.568;11.894;2022-08-30T01:32:23;10.60;;;8.88;;
57858;SDS011;49153;45.568;11.894;2022-08-30T01:34:55;10.02;;;8.23;;
57858;SDS011;49153;45.568;11.894;2022-08-30T01:37:23;9.85;;;8.10;;
57858;SDS011;49153;45.568;11.894;2022-08-30T01:39:52;9.35;;;8.13;;
57858;SDS011;49153;45.568;11.894;2022-08-30T01:42:18;11.25;;;8.07;;
57858;SDS011;49153;45.568;11.894;2022-08-30T01:44:49;10.63;;;8.65;;
57858;SDS011;49153;45.568;11.894;2022-08-30T01:47:15;11.05;;;8.00;;
57858;SDS011;49153;45.568;11.894;2022-08-30T01:49:45;10.65;;;8.00;;
57858;SDS011;49153;45.568;11.894;2022-08-30T01:52:11;11.48;;;7.72;;
57858;SDS011;49153;45.568;11.894;2022-08-30T01:54:39;10.50;;;7.55;;
57858;SDS011;49153;45.568;11.894;2022-08-30T01:57:26;11.13;;;7.45;;
57858;SDS011;49153;45.568;11.894;2022-08-30T01:59:52;11.15;;;8.52;;
57858;SDS011;49153;45.568;11.894;2022-08-30T02:02:19;12.38;;;7.85;;
57858;SDS011;49153;45.568;11.894;2022-08-30T02:04:47;10.43;;;7.90;;
57858;SDS011;49153;45.568;11.894;2022-08-30T02:07:13;10.27;;;7.60;;
57858;SDS011;49153;45.568;11.894;2022-08-30T02:09:39;10.05;;;7.75;;
57858;SDS011;49153;45.568;11.894;2022-08-30T02:12:05;11.73;;;9.13;;
57858;SDS011;49153;45.568;11.894;2022-08-30T02:14:35;11.00;;;8.73;;
57858;SDS011;49153;45.568;11.894;2022-08-30T02:17:02;10.63;;;8.40;;
57858;SDS011;49153;45.568;11.894;2022-08-30T02:19:29;12.38;;;8.45;;
57858;SDS011;49153;45.568;11.894;2022-08-30T02:21:54;12.02;;;8.73;;
57858;SDS011;49153;45.568;11.894;2022-08-30T02:24:20;10.65;;;8.48;;
57858;SDS011;49153;45.568;11.894;2022-08-30T02:26:45;12.75;;;8.02;;
57858;SDS011;49153;45.568;11.894;2022-08-30T02:29:11;10.98;;;8.50;;
57858;SDS011;49153;45.568;11.894;2022-08-30T02:31:37;13.13;;;9.23;;
57858;SDS011;49153;45.568;11.894;2022-08-30T02:34:03;10.65;;;8.40;;
57858;SDS011;49153;45.568;11.894;2022-08-30T02:36:28;9.18;;;8.18;;
57858;SDS011;49153;45.568;11.894;2022-08-30T02:38:54;10.63;;;8.48;;
57858;SDS011;49153;45.568;11.894;2022-08-30T02:41:19;11.27;;;8.50;;
57858;SDS011;49153;45.568;11.894;2022-08-30T02:43:45;11.90;;;8.48;;
57858;SDS011;49153;45.568;11.894;2022-08-30T02:46:11;9.07;;;8.13;;
57858;SDS011;49153;45.568;11.894;2022-08-30T02:48:36;11.48;;;9.32;;
57858;SDS011;49153;45.568;11.894;2022-08-30T02:51:06;11.68;;;9.07;;
57858;SDS011;49153;45.568;11.894;2022-08-30T02:53:34;12.45;;;8.93;;
57858;SDS011;49153;45.568;11.894;2022-08-30T02:56:00;12.13;;;9.18;;
57858;SDS011;49153;45.568;11.894;2022-08-30T02:58:25;11.38;;;9.48;;
57858;SDS011;49153;45.568;11.894;2022-08-30T03:00:51;13.75;;;9.90;;
57858;SDS011;49153;45.568;11.894;2022-08-30T03:03:16;11.57;;;9.55;;
57858;SDS011;49153;45.568;11.894;2022-08-30T03:05:42;11.68;;;9.15;;
57858;SDS011;49153;45.568;11.894;2022-08-30T03:08:07;13.20;;;9.75;;
57858;SDS011;49153;45.568;11.894;2022-08-30T03:10:33;10.70;;;8.95;;
57858;SDS011;49153;45.568;11.894;2022-08-30T03:13:00;11.63;;;9.27;;
57858;SDS011;49153;45.568;11.894;2022-08-30T03:15:25;12.80;;;9.13;;
57858;SDS011;49153;45.568;11.894;2022-08-30T03:17:52;12.73;;;9.55;;
57858;SDS011;49153;45.568;11.894;2022-08-30T03:20:19;10.93;;;9.02;;
57858;SDS011;49153;45.568;11.894;2022-08-30T03:22:45;10.48;;;8.65;;
57858;SDS011;49153;45.568;11.894;2022-08-30T03:25:11;11.38;;;8.95;;
57858;SDS011;49153;45.568;11.894;2022-08-30T03:27:38;12.43;;;9.50;;
57858;SDS011;49153;45.568;11.894;2022-08-30T03:30:05;11.23;;;9.02;;
57858;SDS011;49153;45.568;11.894;2022-08-30T03:32:31;14.50;;;9.88;;
57858;SDS011;49153;45.568;11.894;2022-08-30T03:34:58;11.05;;;9.43;;
57858;SDS011;49153;45.568;11.894;2022-08-30T03:37:24;12.90;;;9.40;;
57858;SDS011;49153;45.568;11.894;2022-08-30T03:39:49;11.57;;;9.50;;
57858;SDS011;49153;45.568;11.894;2022-08-30T03:42:15;11.32;;;9.63;;
57858;SDS011;49153;45.568;11.894;2022-08-30T03:44:41;12.85;;;9.45;;
57858;SDS011;49153;45.568;11.894;2022-08-30T03:47:06;10.93;;;9.43;;
57858;SDS011;49153;45.568;11.894;2022-08-30T03:49:32;10.82;;;9.50;;
57858;SDS011;49153;45.568;11.894;2022-08-30T03:51:58;11.73;;;9.50;;
57858;SDS011;49153;45.568;11.894;2022-08-30T03:54:23;10.98;;;9.18;;
57858;SDS011;49153;45.568;11.894;2022-08-30T03:56:49;11.80;;;10.23;;
57858;SDS011;49153;45.568;11.894;2022-08-30T03:59:15;11.50;;;9.80;;
57858;SDS011;49153;45.568;11.894;2022-08-30T04:01:40;10.25;;;9.15;;
57858;SDS011;49153;45.568;11.894;2022-08-30T04:04:06;11.98;;;9.18;;
57858;SDS011;49153;45.568;11.894;2022-08-30T04:06:33;9.88;;;8.82;;
57858;SDS011;49153;45.568;11.894;2022-08-30T04:08:58;10.50;;;9.15;;
57858;SDS011;49153;45.568;11.894;2022-08-30T04:11:24;10.45;;;9.30;;
57858;SDS011;49153;45.568;11.894;2022-08-30T04:13:50;10.68;;;9.10;;
57858;SDS011;49153;45.568;11.894;2022-08-30T04:16:17;12.48;;;9.88;;
57858;SDS011;49153;45.568;11.894;2022-08-30T04:18:45;12.00;;;9.93;;
57858;SDS011;49153;45.568;11.894;2022-08-30T04:21:11;11.73;;;10.20;;
57858;SDS011;49153;45.568;11.894;2022-08-30T04:23:36;12.48;;;9.45;;
57858;SDS011;49153;45.568;11.894;2022-08-30T04:26:02;12.35;;;9.55;;
57858;SDS011;49153;45.568;11.894;2022-08-30T04:28:28;12.18;;;10.32;;
57858;SDS011;49153;45.568;11.894;2022-08-30T04:30:53;11.32;;;9.18;;
57858;SDS011;49153;45.568;11.894;2022-08-30T04:33:19;14.15;;;8.75;;
57858;SDS011;49153;45.568;11.894;2022-08-30T04:35:46;10.45;;;8.35;;
57858;SDS011;49153;45.568;11.894;2022-08-30T04:38:13;11.85;;;9.20;;
57858;SDS011;49153;45.568;11.894;2022-08-30T04:40:41;13.77;;;9.50;;
57858;SDS011;49153;45.568;11.894;2022-08-30T04:43:08;11.80;;;9.77;;
57858;SDS011;49153;45.568;11.894;2022-08-30T04:45:36;10.25;;;8.82;;
57858;SDS011;49153;45.568;11.894;2022-08-30T04:48:04;11.85;;;9.52;;
57858;SDS011;49153;45.568;11.894;2022-08-30T04:50:30;11.85;;;9.57;;
57858;SDS011;49153;45.568;11.894;2022-08-30T04:52:56;13.60;;;9.15;;
57858;SDS011;49153;45.568;11.894;2022-08-30T04:55:21;10.18;;;8.55;;
57858;SDS011;49153;45.568;11.894;2022-08-30T04:57:48;10.70;;;8.93;;
57858;SDS011;49153;45.568;11.894;2022-08-30T05:00:14;10.40;;;8.15;;
57858;SDS011;49153;45.568;11.894;2022-08-30T05:02:41;10.18;;;8.75;;
57858;SDS011;49153;45.568;11.894;2022-08-30T05:05:07;10.90;;;8.25;;
57858;SDS011;49153;45.568;11.894;2022-08-30T05:07:53;10.93;;;8.13;;
57858;SDS011;49153;45.568;11.894;2022-08-30T05:10:18;9.50;;;7.35;;
57858;SDS011;49153;45.568;11.894;2022-08-30T05:12:44;7.55;;;6.75;;
57858;SDS011;49153;45.568;11.894;2022-08-30T05:15:10;7.00;;;6.30;;
57858;SDS011;49153;45.568;11.894;2022-08-30T05:17:39;9.13;;;6.55;;
57858;SDS011;49153;45.568;11.894;2022-08-30T05:20:05;8.68;;;6.45;;
57858;SDS011;49153;45.568;11.894;2022-08-30T05:22:34;7.85;;;6.40;;
57858;SDS011;49153;45.568;11.894;2022-08-30T05:25:04;8.85;;;6.88;;
57858;SDS011;49153;45.568;11.894;2022-08-30T05:27:30;7.70;;;6.63;;
57858;SDS011;49153;45.568;11.894;2022-08-30T05:29:56;7.35;;;6.60;;
57858;SDS011;49153;45.568;11.894;2022-08-30T05:32:21;6.38;;;5.47;;
57858;SDS011;49153;45.568;11.894;2022-08-30T05:34:47;9.32;;;6.10;;
57858;SDS011;49153;45.568;11.894;2022-08-30T05:37:12;7.03;;;6.22;;
57858;SDS011;49153;45.568;11.894;2022-08-30T05:39:38;7.95;;;6.55;;
57858;SDS011;49153;45.568;11.894;2022-08-30T05:42:03;7.30;;;6.47;;
57858;SDS011;49153;45.568;11.894;2022-08-30T05:44:29;8.52;;;6.60;;
57858;SDS011;49153;45.568;11.894;2022-08-30T05:46:55;7.60;;;6.32;;
57858;SDS011;49153;45.568;11.894;2022-08-30T05:49:20;8.50;;;6.97;;
57858;SDS011;49153;45.568;11.894;2022-08-30T05:51:46;6.97;;;6.20;;
57858;SDS011;49153;45.568;11.894;2022-08-30T05:54:12;8.90;;;7.30;;
57858;SDS011;49153;45.568;11.894;2022-08-30T05:56:39;7.82;;;7.05;;
57858;SDS011;49153;45.568;11.894;2022-08-30T05:59:06;9.60;;;7.20;;
57858;SDS011;49153;45.568;11.894;2022-08-30T06:01:33;7.75;;;6.25;;
57858;SDS011;49153;45.568;11.894;2022-08-30T06:04:02;7.38;;;6.35;;
57858;SDS011;49153;45.568;11.894;2022-08-30T06:06:29;8.48;;;6.82;;
57858;SDS011;49153;45.568;11.894;2022-08-30T06:08:56;10.27;;;7.35;;
57858;SDS011;49153;45.568;11.894;2022-08-30T06:11:23;9.85;;;7.28;;
57858;SDS011;49153;45.568;11.894;2022-08-30T06:13:50;10.85;;;7.22;;
57858;SDS011;49153;45.568;11.894;2022-08-30T06:16:18;11.23;;;7.68;;
57858;SDS011;49153;45.568;11.894;2022-08-30T06:18:45;8.63;;;7.47;;
57858;SDS011;49153;45.568;11.894;2022-08-30T06:21:15;8.52;;;7.07;;
57858;SDS011;49153;45.568;11.894;2022-08-30T06:23:42;9.05;;;6.93;;
57858;SDS011;49153;45.568;11.894;2022-08-30T06:26:08;8.75;;;6.90;;
57858;SDS011;49153;45.568;11.894;2022-08-30T06:28:34;8.02;;;7.13;;
57858;SDS011;49153;45.568;11.894;2022-08-30T06:31:00;9.20;;;7.35;;
57858;SDS011;49153;45.568;11.894;2022-08-30T06:33:26;8.82;;;7.30;;
57858;SDS011;49153;45.568;11.894;2022-08-30T06:35:51;8.15;;;6.93;;
57858;SDS011;49153;45.568;11.894;2022-08-30T06:38:17;11.45;;;7.90;;
57858;SDS011;49153;45.568;11.894;2022-08-30T06:40:42;11.43;;;8.27;;
57858;SDS011;49153;45.568;11.894;2022-08-30T06:43:08;11.23;;;7.75;;
57858;SDS011;49153;45.568;11.894;2022-08-30T06:45:34;10.93;;;7.68;;
57858;SDS011;49153;45.568;11.894;2022-08-30T06:47:59;10.60;;;7.97;;
57858;SDS011;49153;45.568;11.894;2022-08-30T06:50:25;10.30;;;7.43;;
57858;SDS011;49153;45.568;11.894;2022-08-30T06:52:51;9.48;;;7.82;;
57858;SDS011;49153;45.568;11.894;2022-08-30T06:55:17;8.73;;;7.85;;
57858;SDS011;49153;45.568;11.894;2022-08-30T06:57:43;10.45;;;8.07;;
57858;SDS011;49153;45.568;11.894;2022-08-30T07:00:17;10.43;;;7.82;;
57858;SDS011;49153;45.568;11.894;2022-08-30T07:02:45;8.60;;;7.53;;
57858;SDS011;49153;45.568;11.894;2022-08-30T07:05:14;10.07;;;7.57;;
57858;SDS011;49153;45.568;11.894;2022-08-30T07:07:50;13.23;;;8.40;;
57858;SDS011;49153;45.568;11.894;2022-08-30T07:10:19;11.32;;;8.52;;
57858;SDS011;49153;45.568;11.894;2022-08-30T07:13:01;10.10;;;7.97;;
57858;SDS011;49153;45.568;11.894;2022-08-30T07:15:42;8.82;;;7.57;;
57858;SDS011;49153;45.568;11.894;2022-08-30T07:18:23;10.65;;;7.78;;
57858;SDS011;49153;45.568;11.894;2022-08-30T07:21:15;10.70;;;7.53;;
57858;SDS011;49153;45.568;11.894;2022-08-30T07:24:17;7.85;;;6.95;;
57858;SDS011;49153;45.568;11.894;2022-08-30T07:27:19;8.82;;;7.00;;
57858;SDS011;49153;45.568;11.894;2022-08-30T07:30:08;7.97;;;6.60;;
57858;SDS011;49153;45.568;11.894;2022-08-30T07:35:48;8.43;;;6.68;;
57858;SDS011;49153;45.568;11.894;2022-08-30T07:38:32;7.65;;;6.45;;
57858;SDS011;49153;45.568;11.894;2022-08-30T07:41:06;7.80;;;6.63;;
57858;SDS011;49153;45.568;11.894;2022-08-30T07:44:22;8.60;;;6.60;;
57858;SDS011;49153;45.568;11.894;2022-08-30T07:46:47;8.32;;;6.03;;
57858;SDS011;49153;45.568;11.894;2022-08-30T07:49:14;8.40;;;6.22;;
57858;SDS011;49153;45.568;11.894;2022-08-30T07:51:50;7.85;;;6.70;;
57858;SDS011;49153;45.568;11.894;2022-08-30T07:54:15;6.65;;;5.95;;
57858;SDS011;49153;45.568;11.894;2022-08-30T07:56:43;7.50;;;6.40;;
57858;SDS011;49153;45.568;11.894;2022-08-30T07:59:18;7.95;;;5.32;;
57858;SDS011;49153;45.568;11.894;2022-08-30T08:01:45;6.72;;;5.88;;
57858;SDS011;49153;45.568;11.894;2022-08-30T08:04:16;7.13;;;5.13;;
57858;SDS011;49153;45.568;11.894;2022-08-30T08:06:41;5.50;;;4.93;;
57858;SDS011;49153;45.568;11.894;2022-08-30T08:09:12;7.57;;;5.22;;
57858;SDS011;49153;45.568;11.894;2022-08-30T08:11:48;6.63;;;5.78;;
57858;SDS011;49153;45.568;11.894;2022-08-30T08:14:23;5.25;;;4.22;;
57858;SDS011;49153;45.568;11.894;2022-08-30T08:16:51;5.20;;;4.70;;
57858;SDS011;49153;45.568;11.894;2022-08-30T08:19:18;5.88;;;4.30;;
57858;SDS011;49153;45.568;11.894;2022-08-30T08:21:47;5.18;;;4.68;;
57858;SDS011;49153;45.568;11.894;2022-08-30T08:24:29;6.10;;;4.97;;
57858;SDS011;49153;45.568;11.894;2022-08-30T08:26:57;5.05;;;4.55;;
57858;SDS011;49153;45.568;11.894;2022-08-30T08:29:26;4.88;;;4.28;;
57858;SDS011;49153;45.568;11.894;2022-08-30T08:31:52;4.88;;;3.80;;
57858;SDS011;49153;45.568;11.894;2022-08-30T08:34:18;4.93;;;4.43;;
57858;SDS011;49153;45.568;11.894;2022-08-30T08:36:47;5.20;;;4.03;;
57858;SDS011;49153;45.568;11.894;2022-08-30T08:39:13;5.45;;;4.63;;
57858;SDS011;49153;45.568;11.894;2022-08-30T08:44:14;4.90;;;4.10;;
57858;SDS011;49153;45.568;11.894;2022-08-30T08:46:48;4.90;;;4.43;;
57858;SDS011;49153;45.568;11.894;2022-08-30T08:49:23;5.15;;;4.30;;
57858;SDS011;49153;45.568;11.894;2022-08-30T08:51:49;4.80;;;4.10;;
57858;SDS011;49153;45.568;11.894;2022-08-30T08:57:16;5.03;;;3.90;;
57858;SDS011;49153;45.568;11.894;2022-08-30T08:59:42;5.60;;;3.60;;
57858;SDS011;49153;45.568;11.894;2022-08-30T09:02:25;5.03;;;3.58;;
57858;SDS011;49153;45.568;11.894;2022-08-30T09:04:57;5.25;;;4.05;;
57858;SDS011;49153;45.568;11.894;2022-08-30T09:07:25;6.35;;;4.00;;
57858;SDS011;49153;45.568;11.894;2022-08-30T09:09:54;6.03;;;3.65;;
57858;SDS011;49153;45.568;11.894;2022-08-30T09:12:24;5.47;;;3.83;;
57858;SDS011;49153;45.568;11.894;2022-08-30T09:14:53;5.07;;;3.33;;
57858;SDS011;49153;45.568;11.894;2022-08-30T09:17:25;4.10;;;3.70;;
57858;SDS011;49153;45.568;11.894;2022-08-30T09:25:07;4.45;;;3.58;;
57858;SDS011;49153;45.568;11.894;2022-08-30T09:27:45;4.43;;;3.58;;
57858;SDS011;49153;45.568;11.894;2022-08-30T09:30:25;3.63;;;2.97;;
57858;SDS011;49153;45.568;11.894;2022-08-30T09:40:48;5.78;;;3.80;;
57858;SDS011;49153;45.568;11.894;2022-08-30T09:45:42;9.82;;;3.50;;
57858;SDS011;49153;45.568;11.894;2022-08-30T09:48:28;3.97;;;3.22;;
57858;SDS011;49153;45.568;11.894;2022-08-30T09:53:41;4.93;;;3.50;;
57858;SDS011;49153;45.568;11.894;2022-08-30T10:06:45;3.88;;;3.45;;
57858;SDS011;49153;45.568;11.894;2022-08-30T10:11:53;3.50;;;3.20;;
57858;SDS011;49153;45.568;11.894;2022-08-30T10:16:54;3.83;;;3.10;;
57858;SDS011;49153;45.568;11.894;2022-08-30T10:22:15;4.22;;;3.40;;
57858;SDS011;49153;45.568;11.894;2022-08-30T10:24:44;3.35;;;3.00;;
57858;SDS011;49153;45.568;11.894;2022-08-30T10:27:18;5.22;;;3.45;;
57858;SDS011;49153;45.568;11.894;2022-08-30T10:29:52;3.30;;;3.00;;
57858;SDS011;49153;45.568;11.894;2022-08-30T10:32:29;5.10;;;3.40;;
57858;SDS011;49153;45.568;11.894;2022-08-30T10:37:34;3.63;;;3.33;;
57858;SDS011;49153;45.568;11.894;2022-08-30T10:40:06;4.85;;;3.30;;
57858;SDS011;49153;45.568;11.894;2022-08-30T10:42:57;3.38;;;3.08;;
57858;SDS011;49153;45.568;11.894;2022-08-30T10:45:27;4.00;;;3.15;;
57858;SDS011;49153;45.568;11.894;2022-08-30T10:50:41;8.60;;;3.35;;
57858;SDS011;49153;45.568;11.894;2022-08-30T10:53:13;3.30;;;2.97;;
57858;SDS011;49153;45.568;11.894;2022-08-30T10:58:31;5.40;;;3.28;;
57858;SDS011;49153;45.568;11.894;2022-08-30T11:14:53;6.20;;;3.53;;
57858;SDS011;49153;45.568;11.894;2022-08-30T11:17:34;4.68;;;3.40;;
57858;SDS011;49153;45.568;11.894;2022-08-30T11:20:05;3.95;;;3.20;;
57858;SDS011;49153;45.568;11.894;2022-08-30T11:23:41;4.65;;;3.55;;
57858;SDS011;49153;45.568;11.894;2022-08-30T11:33:45;3.97;;;3.58;;
57858;SDS011;49153;45.568;11.894;2022-08-30T11:46:49;3.75;;;3.17;;
57858;SDS011;49153;45.568;11.894;2022-08-30T11:52:13;4.18;;;3.75;;
57858;SDS011;49153;45.568;11.894;2022-08-30T11:55:02;4.25;;;3.70;;
57858;SDS011;49153;45.568;11.894;2022-08-30T11:57:40;4.55;;;3.40;;
57858;SDS011;49153;45.568;11.894;2022-08-30T12:00:32;4.10;;;3.70;;
57858;SDS011;49153;45.568;11.894;2022-08-30T12:03:06;4.30;;;3.60;;
57858;SDS011;49153;45.568;11.894;2022-08-30T12:18:42;3.95;;;3.63;;
57858;SDS011;49153;45.568;11.894;2022-08-30T12:28:50;4.07;;;3.60;;
57858;SDS011;49153;45.568;11.894;2022-08-30T12:31:22;5.20;;;3.85;;
57858;SDS011;49153;45.568;11.894;2022-08-30T12:33:54;4.25;;;3.55;;
57858;SDS011;49153;45.568;11.894;2022-08-30T12:36:32;6.40;;;4.20;;
57858;SDS011;49153;45.568;11.894;2022-08-30T12:39:14;3.78;;;3.47;;
57858;SDS011;49153;45.568;11.894;2022-08-30T12:41:43;4.18;;;3.78;;
57858;SDS011;49153;45.568;11.894;2022-08-30T12:44:17;4.15;;;3.75;;
57858;SDS011;49153;45.568;11.894;2022-08-30T12:46:49;3.67;;;3.38;;
57858;SDS011;49153;45.568;11.894;2022-08-30T12:49:18;4.00;;;3.60;;
57858;SDS011;49153;45.568;11.894;2022-08-30T12:51:46;4.60;;;3.92;;
57858;SDS011;49153;45.568;11.894;2022-08-30T12:54:19;5.28;;;3.92;;
57858;SDS011;49153;45.568;11.894;2022-08-30T12:56:54;3.88;;;3.47;;
57858;SDS011;49153;45.568;11.894;2022-08-30T12:59:43;3.88;;;3.50;;
57858;SDS011;49153;45.568;11.894;2022-08-30T13:04:50;4.15;;;3.75;;
57858;SDS011;49153;45.568;11.894;2022-08-30T13:07:24;7.65;;;3.83;;
57858;SDS011;49153;45.568;11.894;2022-08-30T13:12:59;3.88;;;3.45;;
57858;SDS011;49153;45.568;11.894;2022-08-30T13:15:32;4.10;;;3.70;;
57858;SDS011;49153;45.568;11.894;2022-08-30T13:18:16;7.05;;;3.97;;
57858;SDS011;49153;45.568;11.894;2022-08-30T13:20:45;3.80;;;3.50;;
57858;SDS011;49153;45.568;11.894;2022-08-30T13:23:19;4.18;;;3.78;;
57858;SDS011;49153;45.568;11.894;2022-08-30T13:25:46;4.22;;;3.80;;
57858;SDS011;49153;45.568;11.894;2022-08-30T13:28:11;5.85;;;3.42;;
57858;SDS011;49153;45.568;11.894;2022-08-30T13:30:37;4.05;;;3.67;;
57858;SDS011;49153;45.568;11.894;2022-08-30T13:33:02;6.28;;;4.25;;
57858;SDS011;49153;45.568;11.894;2022-08-30T13:35:28;4.18;;;3.78;;
57858;SDS011;49153;45.568;11.894;2022-08-30T13:37:55;6.80;;;4.25;;
57858;SDS011;49153;45.568;11.894;2022-08-30T13:40:22;4.90;;;3.40;;
57858;SDS011;49153;45.568;11.894;2022-08-30T13:42:48;4.40;;;3.60;;
57858;SDS011;49153;45.568;11.894;2022-08-30T13:45:14;4.00;;;3.70;;
57858;SDS011;49153;45.568;11.894;2022-08-30T13:47:42;6.28;;;3.67;;
57858;SDS011;49153;45.568;11.894;2022-08-30T13:50:10;5.38;;;3.90;;
57858;SDS011;49153;45.568;11.894;2022-08-30T13:52:36;4.40;;;4.00;;
57858;SDS011;49153;45.568;11.894;2022-08-30T13:55:01;4.35;;;3.95;;
57858;SDS011;49153;45.568;11.894;2022-08-30T13:57:28;6.20;;;4.05;;
57858;SDS011;49153;45.568;11.894;2022-08-30T13:59:54;5.93;;;4.10;;
57858;SDS011;49153;45.568;11.894;2022-08-30T14:02:20;4.10;;;3.70;;
57858;SDS011;49153;45.568;11.894;2022-08-30T14:04:45;4.32;;;3.78;;
57858;SDS011;49153;45.568;11.894;2022-08-30T14:07:11;5.97;;;4.03;;
57858;SDS011;49153;45.568;11.894;2022-08-30T14:09:36;4.80;;;4.30;;
57858;SDS011;49153;45.568;11.894;2022-08-30T14:12:02;4.63;;;4.20;;
57858;SDS011;49153;45.568;11.894;2022-08-30T14:14:28;4.32;;;3.90;;
57858;SDS011;49153;45.568;11.894;2022-08-30T14:16:53;5.15;;;4.20;;
57858;SDS011;49153;45.568;11.894;2022-08-30T14:19:19;8.82;;;4.30;;
57858;SDS011;49153;45.568;11.894;2022-08-30T14:21:45;5.35;;;3.90;;
57858;SDS011;49153;45.568;11.894;2022-08-30T14:24:11;5.75;;;4.20;;
57858;SDS011;49153;45.568;11.894;2022-08-30T14:26:41;5.45;;;3.97;;
57858;SDS011;49153;45.568;11.894;2022-08-30T14:29:13;4.57;;;4.18;;
57858;SDS011;49153;45.568;11.894;2022-08-30T14:31:41;4.43;;;4.03;;
57858;SDS011;49153;45.568;11.894;2022-08-30T14:34:08;4.85;;;3.70;;
57858;SDS011;49153;45.568;11.894;2022-08-30T14:36:35;5.22;;;4.22;;
57858;SDS011;49153;45.568;11.894;2022-08-30T14:39:03;4.70;;;4.28;;
57858;SDS011;49153;45.568;11.894;2022-08-30T14:41:30;4.18;;;3.78;;
57858;SDS011;49153;45.568;11.894;2022-08-30T14:43:56;3.92;;;3.30;;
57858;SDS011;49153;45.568;11.894;2022-08-30T14:46:21;4.93;;;4.03;;
57858;SDS011;49153;45.568;11.894;2022-08-30T14:48:49;4.80;;;3.80;;
57858;SDS011;49153;45.568;11.894;2022-08-30T14:51:16;5.85;;;3.92;;
57858;SDS011;49153;45.568;11.894;2022-08-30T14:53:42;5.40;;;3.97;;
57858;SDS011;49153;45.568;11.894;2022-08-30T14:56:10;4.68;;;4.00;;
57858;SDS011;49153;45.568;11.894;2022-08-30T14:58:37;4.63;;;4.18;;
57858;SDS011;49153;45.568;11.894;2022-08-30T15:01:06;6.38;;;4.18;;
57858;SDS011;49153;45.568;11.894;2022-08-30T15:03:33;5.22;;;3.95;;
57858;SDS011;49153;45.568;11.894;2022-08-30T15:05:59;4.20;;;3.85;;
57858;SDS011;49153;45.568;11.894;2022-08-30T15:08:24;4.82;;;4.00;;
57858;SDS011;49153;45.568;11.894;2022-08-30T15:10:50;4.13;;;3.72;;
57858;SDS011;49153;45.568;11.894;2022-08-30T15:13:15;4.32;;;3.92;;
57858;SDS011;49153;45.568;11.894;2022-08-30T15:15:41;4.50;;;4.10;;
57858;SDS011;49153;45.568;11.894;2022-08-30T15:18:07;5.53;;;4.18;;
57858;SDS011;49153;45.568;11.894;2022-08-30T15:20:32;4.50;;;4.10;;
57858;SDS011;49153;45.568;11.894;2022-08-30T15:22:58;4.47;;;3.78;;
57858;SDS011;49153;45.568;11.894;2022-08-30T15:25:23;6.22;;;4.25;;
57858;SDS011;49153;45.568;11.894;2022-08-30T15:27:49;4.45;;;4.05;;
57858;SDS011;49153;45.568;11.894;2022-08-30T15:30:14;6.22;;;4.05;;
57858;SDS011;49153;45.568;11.894;2022-08-30T15:32:40;5.53;;;4.25;;
57858;SDS011;49153;45.568;11.894;2022-08-30T15:35:05;4.78;;;3.70;;
57858;SDS011;49153;45.568;11.894;2022-08-30T15:37:31;6.20;;;3.78;;
57858;SDS011;49153;45.568;11.894;2022-08-30T15:39:56;4.22;;;3.83;;
57858;SDS011;49153;45.568;11.894;2022-08-30T15:42:22;4.85;;;4.32;;
57858;SDS011;49153;45.568;11.894;2022-08-30T15:44:51;6.57;;;3.55;;
57858;SDS011;49153;45.568;11.894;2022-08-30T15:47:21;4.50;;;3.45;;
57858;SDS011;49153;45.568;11.894;2022-08-30T15:49:57;4.32;;;3.92;;
57858;SDS011;49153;45.568;11.894;2022-08-30T15:52:26;4.50;;;4.10;;
57858;SDS011;49153;45.568;11.894;2022-08-30T15:54:51;4.65;;;4.03;;
57858;SDS011;49153;45.568;11.894;2022-08-30T15:57:17;4.45;;;3.60;;
57858;SDS011;49153;45.568;11.894;2022-08-30T15:59:43;5.22;;;3.97;;
57858;SDS011;49153;45.568;11.894;2022-08-30T16:02:09;4.55;;;3.67;;
57858;SDS011;49153;45.568;11.894;2022-08-30T16:04:34;4.00;;;3.60;;
57858;SDS011;49153;45.568;11.894;2022-08-30T16:07:01;4.97;;;4.00;;
57858;SDS011;49153;45.568;11.894;2022-08-30T16:09:26;5.43;;;3.97;;
57858;SDS011;49153;45.568;11.894;2022-08-30T16:11:52;4.47;;;3.85;;
57858;SDS011;49153;45.568;11.894;2022-08-30T16:14:17;6.22;;;3.55;;
57858;SDS011;49153;45.568;11.894;2022-08-30T16:16:43;6.57;;;4.05;;
57858;SDS011;49153;45.568;11.894;2022-08-30T16:19:10;4.95;;;3.40;;
57858;SDS011;49153;45.568;11.894;2022-08-30T16:21:36;4.65;;;3.40;;
57858;SDS011;49153;45.568;11.894;2022-08-30T16:24:02;3.78;;;3.40;;
57858;SDS011;49153;45.568;11.894;2022-08-30T16:26:30;4.45;;;3.60;;
57858;SDS011;49153;45.568;11.894;2022-08-30T16:28:57;4.80;;;3.65;;
57858;SDS011;49153;45.568;11.894;2022-08-30T16:31:23;4.20;;;3.72;;
57858;SDS011;49153;45.568;11.894;2022-08-30T16:33:50;5.65;;;3.60;;
57858;SDS011;49153;45.568;11.894;2022-08-30T16:36:16;4.25;;;3.30;;
57858;SDS011;49153;45.568;11.894;2022-08-30T16:38:42;6.10;;;2.92;;